Time;durP1;ratioP1;P1;durP2;ratioP2;P2;SDS_P1;SDS_P2;PMS_P1;PMS_P2;Temp;Humidity;BMP_temperature;BMP_pressure;BME280_temperature;BME280_humidity;BME280_pressure;Samples;Min_cycle;Max_cycle;Signal;HPM_P1;HPM_P2
2024/01/17 00:02:30;;;;;;;10.82;6.50;;;;;;;-1.21;100.00;100137.13;5234615;28;20546;-78
2024/01/17 00:05:03;;;;;;;10.98;7.30;;;;;;;-1.09;100.00;100156.25;5240824;28;20028;-78
2024/01/17 00:07:34;;;;;;;10.07;6.53;;;;;;;-1.11;100.00;100143.47;5242371;28;20040;-78
2024/01/17 00:10:07;;;;;;;14.05;7.10;;;;;;;-1.16;100.00;100150.56;5243797;28;20063;-78
2024/01/17 00:12:39;;;;;;;9.93;6.90;;;;;;;-1.16;100.00;100150.56;5241838;28;20033;-78
2024/01/17 00:15:12;;;;;;;10.40;6.18;;;;;;;-1.18;100.00;100134.38;5241311;28;20313;-78
2024/01/17 00:17:46;;;;;;;10.55;6.68;;;;;;;-1.14;100.00;100137.63;5239828;28;20043;-78
2024/01/17 00:20:18;;;;;;;13.30;7.82;;;;;;;-1.16;100.00;100130.00;5241025;28;20033;-78
2024/01/17 00:22:50;;;;;;;11.48;6.57;;;;;;;-1.20;100.00;100117.38;5242132;28;20071;-78
2024/01/17 00:25:22;;;;;;;11.82;7.18;;;;;;;-1.20;100.00;100107.09;5242661;28;20498;-78
2024/01/17 00:27:54;;;;;;;9.93;6.93;;;;;;;-1.21;100.00;100106.28;5237815;28;20044;-78
2024/01/17 00:30:26;;;;;;;10.52;6.07;;;;;;;-1.26;100.00;100103.91;5240274;28;20036;-78
2024/01/17 00:32:58;;;;;;;12.02;7.05;;;;;;;-1.23;100.00;100092.66;5242728;28;20038;-78
2024/01/17 00:35:30;;;;;;;8.40;6.23;;;;;;;-1.18;100.00;100089.84;5239526;28;20032;-78
2024/01/17 00:38:02;;;;;;;9.65;6.25;;;;;;;-1.25;100.00;100085.03;5239437;28;20279;-78
2024/01/17 00:40:34;;;;;;;12.13;6.78;;;;;;;-1.24;100.00;100078.97;5231335;28;20573;-78
2024/01/17 00:43:07;;;;;;;10.43;6.15;;;;;;;-1.26;100.00;100074.81;5244032;28;20040;-78
2024/01/17 00:45:39;;;;;;;12.15;6.68;;;;;;;-1.24;100.00;100063.56;5242356;28;20487;-78
2024/01/17 00:48:13;;;;;;;11.07;6.27;;;;;;;-1.26;100.00;100060.22;5242544;28;20032;-78
2024/01/17 00:50:45;;;;;;;9.90;6.78;;;;;;;-1.27;100.00;100060.31;5242021;28;20370;-78
2024/01/17 00:53:17;;;;;;;9.75;6.35;;;;;;;-1.26;100.00;100052.50;5244630;28;20041;-78
2024/01/17 00:55:49;;;;;;;8.60;5.70;;;;;;;-1.23;100.00;100046.38;5242067;28;20048;-78
2024/01/17 00:58:21;;;;;;;10.13;6.05;;;;;;;-1.28;100.00;100041.47;5242254;28;21045;-78
2024/01/17 01:00:53;;;;;;;8.25;5.97;;;;;;;-1.31;100.00;100036.50;5241370;28;20029;-78
2024/01/17 01:03:25;;;;;;;8.98;5.80;;;;;;;-1.31;100.00;100031.34;5241981;28;20040;-78
2024/01/17 01:05:57;;;;;;;10.18;5.97;;;;;;;-1.33;100.00;100020.28;5240130;28;20029;-77
2024/01/17 01:08:29;;;;;;;11.45;6.18;;;;;;;-1.33;100.00;100017.72;5242499;28;20078;-77
2024/01/17 01:11:01;;;;;;;9.43;5.90;;;;;;;-1.38;100.00;100022.28;5242099;28;20138;-78
2024/01/17 01:13:33;;;;;;;12.55;6.50;;;;;;;-1.39;100.00;100024.94;5241095;28;20037;-78
2024/01/17 01:16:05;;;;;;;9.40;6.18;;;;;;;-1.50;100.00;100012.59;5241846;28;20044;-77
2024/01/17 01:18:37;;;;;;;9.02;5.68;;;;;;;-1.36;100.00;100022.22;5240991;28;20086;-77
2024/01/17 01:21:09;;;;;;;8.27;5.82;;;;;;;-1.34;100.00;100012.69;5241384;28;20580;-77
2024/01/17 01:23:41;;;;;;;10.30;5.93;;;;;;;-1.38;100.00;100016.31;5238810;28;20026;-78
2024/01/17 01:26:16;;;;;;;11.80;6.53;;;;;;;-1.39;100.00;100004.38;5240807;28;20025;-77
2024/01/17 01:28:47;;;;;;;10.95;6.82;;;;;;;-1.39;100.00;99994.91;5239464;28;20424;-78
2024/01/17 01:31:19;;;;;;;11.10;5.93;;;;;;;-1.39;100.00;99994.91;5239198;28;20056;-77
2024/01/17 01:33:51;;;;;;;11.13;5.88;;;;;;;-1.39;100.00;100006.94;5243429;28;20037;-77
2024/01/17 01:36:23;;;;;;;11.55;6.28;;;;;;;-1.39;100.00;100000.06;5240826;28;20033;-77
2024/01/17 01:38:55;;;;;;;10.43;5.93;;;;;;;-1.40;100.00;99995.84;5241060;28;20052;-77
2024/01/17 01:41:27;;;;;;;7.65;5.30;;;;;;;-1.46;100.00;99991.00;5240912;28;20040;-77
2024/01/17 01:43:59;;;;;;;8.75;5.70;;;;;;;-1.42;100.00;99991.69;5241506;28;20522;-77
2024/01/17 01:46:31;;;;;;;9.43;5.63;;;;;;;-1.51;100.00;99988.66;5243102;28;20072;-77
2024/01/17 01:49:03;;;;;;;9.57;6.28;;;;;;;-1.45;100.00;99992.66;5236235;28;20033;-77
2024/01/17 01:51:35;;;;;;;8.98;5.60;;;;;;;-1.45;100.00;100005.50;5240229;28;21109;-78
2024/01/17 01:54:07;;;;;;;10.88;6.45;;;;;;;-1.48;100.00;99997.91;5239660;28;20053;-77
2024/01/17 01:56:40;;;;;;;10.18;5.82;;;;;;;-1.45;100.00;100005.50;5243699;28;20037;-78
2024/01/17 01:59:15;;;;;;;10.40;5.80;;;;;;;-1.55;100.00;99978.59;5240093;28;20033;-77
2024/01/17 02:01:48;;;;;;;10.77;5.78;;;;;;;-1.52;100.00;99983.56;5241477;28;20035;-77
2024/01/17 02:04:21;;;;;;;10.93;5.68;;;;;;;-1.50;100.00;99989.47;5240570;28;20037;-77
2024/01/17 02:06:54;;;;;;;9.50;5.72;;;;;;;-1.52;100.00;99978.44;5239472;28;20032;-77
2024/01/17 02:09:27;;;;;;;8.25;5.43;;;;;;;-1.59;100.00;99970.22;5240684;28;20044;-77
2024/01/17 02:11:59;;;;;;;;;;;;;;;-1.12;100.00;99969.59;5239535;28;20033;-77
2024/01/17 02:14:31;;;;;;;13.07;6.30;;;;;;;-1.50;100.00;99968.94;5240311;28;19923;-77
2024/01/17 02:17:03;;;;;;;12.55;6.10;;;;;;;-1.49;100.00;99968.00;5236585;28;20289;-77
2024/01/17 02:19:36;;;;;;;8.38;5.50;;;;;;;-1.52;100.00;99963.84;5238232;28;20032;-77
2024/01/17 02:22:08;;;;;;;10.55;5.72;;;;;;;-1.53;100.00;99956.22;5241859;28;20040;-77
2024/01/17 02:24:39;;;;;;;11.85;6.35;;;;;;;-1.55;100.00;99947.78;5239568;28;20029;-77
2024/01/17 02:27:11;;;;;;;11.05;6.55;;;;;;;-1.54;100.00;99949.44;5242637;28;20366;-77
2024/01/17 02:29:46;;;;;;;9.50;5.80;;;;;;;-1.57;100.00;99947.00;5238113;28;20029;-77
2024/01/17 02:32:17;;;;;;;10.05;6.25;;;;;;;-1.56;100.00;99941.78;5239073;28;20043;-77
2024/01/17 02:34:50;;;;;;;7.50;5.22;;;;;;;-1.56;100.00;99930.69;5239251;28;20044;-77
2024/01/17 02:37:22;;;;;;;9.40;6.05;;;;;;;-1.57;100.00;99918.75;5238320;28;20025;-77
2024/01/17 02:39:54;;;;;;;11.15;5.80;;;;;;;-1.59;100.00;99915.44;5239924;28;20060;-77
2024/01/17 02:42:26;;;;;;;9.82;5.78;;;;;;;-1.61;100.00;99907.81;5239502;28;20367;-77
2024/01/17 02:44:57;;;;;;;10.80;6.22;;;;;;;-1.62;100.00;99900.19;5238407;28;20051;-77
2024/01/17 02:47:29;;;;;;;10.13;5.53;;;;;;;-1.60;100.00;99891.47;5238885;28;20033;-77
2024/01/17 02:50:02;;;;;;;9.30;6.53;;;;;;;-1.61;100.00;99889.84;5238636;28;20039;-77
2024/01/17 02:52:33;;;;;;;7.38;5.38;;;;;;;-1.63;100.00;99891.66;5239910;28;20029;-77
2024/01/17 02:55:07;;;;;;;9.82;5.57;;;;;;;-1.63;100.00;99891.66;5238960;28;20045;-77
2024/01/17 02:57:39;;;;;;;10.48;6.22;;;;;;;-1.65;100.00;99883.19;5238609;28;20041;-77
2024/01/17 03:00:11;;;;;;;9.35;5.90;;;;;;;-1.67;100.00;99867.00;5239281;28;20022;-77
2024/01/17 03:02:44;;;;;;;10.87;5.63;;;;;;;-1.64;100.00;99859.16;5239688;28;20791;-77
2024/01/17 03:05:16;;;;;;;9.43;5.43;;;;;;;-1.59;100.00;99856.34;5239619;28;20395;-77
2024/01/17 03:07:48;;;;;;;8.65;5.25;;;;;;;-1.62;100.00;99856.53;5234351;28;20279;-77
2024/01/17 03:10:20;;;;;;;12.13;5.85;;;;;;;-1.60;100.00;99855.53;5236547;28;20037;-77
2024/01/17 03:12:52;;;;;;;8.80;5.35;;;;;;;-1.59;100.00;99859.78;5240578;28;20120;-77
2024/01/17 03:15:24;;;;;;;9.38;5.38;;;;;;;-1.60;100.00;99854.69;5234778;28;20048;-77
2024/01/17 03:17:56;;;;;;;10.32;6.15;;;;;;;-1.60;100.00;99864.97;5238435;28;20057;-77
2024/01/17 03:20:27;;;;;;;7.93;5.38;;;;;;;-1.62;100.00;99859.09;5237404;28;20037;-77
2024/01/17 03:22:59;;;;;;;8.07;5.00;;;;;;;-1.61;100.00;99858.19;5238013;28;20040;-77
2024/01/17 03:25:31;;;;;;;8.15;5.38;;;;;;;-1.62;100.00;99853.97;5233706;28;20043;-77
2024/01/17 03:28:03;;;;;;;10.65;5.50;;;;;;;-1.61;100.00;99842.78;5235503;28;20032;-77
2024/01/17 03:30:36;;;;;;;8.77;5.47;;;;;;;-1.60;100.00;99845.25;5236418;28;20488;-77
2024/01/17 03:33:08;;;;;;;9.40;5.57;;;;;;;-1.56;100.00;99835.66;5237534;28;20025;-77
2024/01/17 03:35:42;;;;;;;8.73;5.38;;;;;;;-1.58;100.00;99816.94;5236452;28;20033;-77
2024/01/17 03:38:14;;;;;;;8.02;5.32;;;;;;;-1.65;100.00;99807.88;5236049;28;20026;-77
2024/01/17 03:40:46;;;;;;;7.97;5.20;;;;;;;-1.62;100.00;99810.31;5237419;28;20036;-77
2024/01/17 03:43:18;;;;;;;10.10;5.07;;;;;;;-1.66;100.00;99803.69;5238822;28;20409;-77
2024/01/17 03:45:52;;;;;;;12.05;5.50;;;;;;;-1.64;100.00;99789.81;5235327;28;20033;-77
2024/01/17 03:48:24;;;;;;;8.75;5.07;;;;;;;-1.65;100.00;99782.22;5237659;28;20037;-77
2024/01/17 03:50:56;;;;;;;9.05;5.53;;;;;;;-1.64;100.00;99758.19;5236826;28;20039;-77
2024/01/17 03:53:27;;;;;;;7.25;5.18;;;;;;;-1.65;100.00;99759.94;5236980;28;20029;-77
2024/01/17 03:55:59;;;;;;;9.45;5.60;;;;;;;-1.64;100.00;99755.63;5238488;28;20110;-77
2024/01/17 03:58:31;;;;;;;8.55;5.18;;;;;;;-1.61;100.00;99745.19;5237460;28;20034;-77
2024/01/17 04:01:04;;;;;;;9.75;5.40;;;;;;;-1.62;100.00;99746.94;5236753;28;20043;-77
2024/01/17 04:03:36;;;;;;;8.80;5.10;;;;;;;-1.57;100.00;99736.41;5236598;28;20038;-77
2024/01/17 04:06:07;;;;;;;10.55;5.90;;;;;;;-1.61;100.00;99735.75;5240960;28;20026;-77
2024/01/17 04:08:39;;;;;;;8.38;5.43;;;;;;;-1.57;100.00;99726.16;5237902;28;20043;-76
2024/01/17 04:11:11;;;;;;;11.55;5.68;;;;;;;-1.59;100.00;99715.09;5241407;28;20032;-76
2024/01/17 04:13:44;;;;;;;7.90;5.28;;;;;;;-1.57;100.00;99715.88;5238010;28;20036;-77
2024/01/17 04:16:17;;;;;;;8.48;5.32;;;;;;;-1.59;100.00;99704.84;5240473;28;20030;-77
2024/01/17 04:18:48;;;;;;;9.68;5.80;;;;;;;-1.55;100.00;99696.91;5240841;28;20048;-77
2024/01/17 04:21:21;;;;;;;9.50;5.05;;;;;;;-1.53;100.00;99687.38;5241459;28;20036;-77
2024/01/17 04:23:52;;;;;;;7.95;5.15;;;;;;;-1.52;100.00;99685.63;5241239;28;20394;-77
2024/01/17 04:26:25;;;;;;;8.75;5.15;;;;;;;-1.52;100.00;99683.06;5242442;28;20037;-77
2024/01/17 04:28:57;;;;;;;10.15;5.57;;;;;;;-1.52;100.00;99677.91;5239242;28;20033;-77
2024/01/17 04:31:31;;;;;;;8.70;5.18;;;;;;;-1.57;100.00;99664.50;5244890;28;20465;-76
2024/01/17 04:34:03;;;;;;;10.30;4.85;;;;;;;-1.51;100.00;99662.44;5242140;28;20561;-77
2024/01/17 04:36:34;;;;;;;9.00;5.20;;;;;;;-1.51;100.00;99653.91;5240917;28;20043;-77
2024/01/17 04:39:08;;;;;;;8.77;5.22;;;;;;;-1.51;100.00;99646.22;5242610;28;20030;-77
2024/01/17 04:41:40;;;;;;;;;;;;;;;-1.02;100.00;99639.19;5242496;28;20033;-77
2024/01/17 04:44:11;;;;;;;10.77;5.38;;;;;;;-1.42;100.00;99648.25;5240501;28;19924;-77
2024/01/17 04:46:44;;;;;;;9.23;4.72;;;;;;;-1.47;100.00;99648.53;5240270;28;20037;-77
2024/01/17 04:49:16;;;;;;;8.40;5.35;;;;;;;-1.56;100.00;99625.06;5242045;28;20029;-77
2024/01/17 04:51:48;;;;;;;6.95;4.50;;;;;;;-1.48;100.00;99625.47;5239522;28;20044;-77
2024/01/17 04:54:21;;;;;;;8.55;5.30;;;;;;;-1.46;100.00;99626.22;5237323;28;20049;-77
2024/01/17 04:56:53;;;;;;;9.20;5.60;;;;;;;-1.47;100.00;99620.25;5242109;28;20045;-77
2024/01/17 04:59:26;;;;;;;8.73;5.18;;;;;;;-1.50;100.00;99601.63;5245623;28;20029;-77
2024/01/17 05:01:58;;;;;;;8.43;6.13;;;;;;;-1.47;100.00;99606.59;5239470;28;20044;-77
2024/01/17 05:04:29;;;;;;;12.98;5.70;;;;;;;-1.44;100.00;99605.56;5239218;28;20487;-77
2024/01/17 05:07:01;;;;;;;7.95;4.97;;;;;;;-1.48;100.00;99602.34;5241472;28;20029;-77
2024/01/17 05:09:34;;;;;;;8.95;5.25;;;;;;;-1.51;100.00;99589.69;5238772;28;20055;-77
2024/01/17 05:12:06;;;;;;;8.15;5.45;;;;;;;-1.48;100.00;99592.94;5238741;28;20033;-76
2024/01/17 05:14:38;;;;;;;7.93;5.20;;;;;;;-1.49;100.00;99587.84;5241891;28;20040;-77
2024/01/17 05:17:09;;;;;;;7.80;5.20;;;;;;;-1.51;100.00;99587.97;5240080;28;20037;-77
2024/01/17 05:19:42;;;;;;;9.27;5.40;;;;;;;-1.48;100.00;99579.22;5240113;28;20371;-77
2024/01/17 05:22:14;;;;;;;9.93;5.13;;;;;;;-1.42;100.00;99573.78;5240828;28;20028;-77
2024/01/17 05:24:46;;;;;;;7.00;5.38;;;;;;;-1.41;100.00;99569.47;5242477;28;20728;-77
2024/01/17 05:27:18;;;;;;;9.52;5.28;;;;;;;-1.36;100.00;99564.91;5240195;28;20029;-77
2024/01/17 05:29:50;;;;;;;8.27;5.22;;;;;;;-1.39;100.00;99562.50;5241304;28;20043;-77
2024/01/17 05:32:21;;;;;;;8.10;4.90;;;;;;;-1.35;100.00;99551.97;5240300;28;20037;-77
2024/01/17 05:34:54;;;;;;;9.23;5.60;;;;;;;-1.38;100.00;99544.44;5243307;28;20093;-77
2024/01/17 05:37:26;;;;;;;10.13;5.20;;;;;;;-1.40;100.00;99548.84;5238942;28;20034;-77
2024/01/17 05:39:57;;;;;;;9.05;5.15;;;;;;;-1.38;100.00;99544.44;5240255;28;20036;-77
2024/01/17 05:42:29;;;;;;;6.88;4.97;;;;;;;-1.37;100.00;99540.94;5238161;28;20048;-77
2024/01/17 05:45:02;;;;;;;6.65;4.43;;;;;;;-1.39;100.00;99535.06;5242089;28;20036;-77
2024/01/17 05:47:35;;;;;;;10.32;5.07;;;;;;;-1.37;100.00;99528.09;5241731;28;20506;-77
2024/01/17 05:50:11;;;;;;;9.05;5.93;;;;;;;-1.35;100.00;99531.41;5239797;28;20064;-77
2024/01/17 05:52:45;;;;;;;8.15;5.18;;;;;;;-1.38;100.00;99533.31;5238615;28;20033;-76
2024/01/17 05:55:19;;;;;;;7.97;4.85;;;;;;;-1.40;100.00;99528.28;5241974;28;20050;-76
2024/01/17 05:57:51;;;;;;;7.75;5.28;;;;;;;-1.38;100.00;99521.31;5239934;28;20049;-76
2024/01/17 06:00:22;;;;;;;9.98;6.57;;;;;;;-1.41;100.00;99529.19;5242866;28;20037;-77
2024/01/17 06:02:54;;;;;;;8.55;6.05;;;;;;;-1.39;100.00;99522.22;5239981;28;20047;-78
2024/01/17 06:05:26;;;;;;;11.02;5.40;;;;;;;-1.51;100.00;99507.50;5240912;28;20517;-77
2024/01/17 06:07:58;;;;;;;11.85;6.07;;;;;;;-1.44;100.00;99511.38;5239637;28;20041;-77
2024/01/17 06:10:30;;;;;;;8.00;5.07;;;;;;;-1.43;100.00;99510.47;5238735;28;20049;-77
2024/01/17 06:13:02;;;;;;;11.07;5.70;;;;;;;-1.45;100.00;99502.00;5242748;28;20031;-77
2024/01/17 06:15:34;;;;;;;9.32;5.65;;;;;;;-1.43;100.00;99509.66;5239522;28;20112;-77
2024/01/17 06:18:06;;;;;;;8.32;5.95;;;;;;;-1.44;100.00;99505.41;5240590;28;20029;-77
2024/01/17 06:20:38;;;;;;;9.23;5.70;;;;;;;-1.45;100.00;99490.91;5240976;28;20171;-77
2024/01/17 06:23:10;;;;;;;10.35;6.22;;;;;;;-1.48;100.00;99485.06;5241537;28;20033;-76
2024/01/17 06:25:42;;;;;;;10.02;6.32;;;;;;;-1.48;100.00;99486.78;5241369;28;20052;-77
2024/01/17 06:28:14;;;;;;;9.82;6.38;;;;;;;-1.48;100.00;99476.50;5238583;28;20025;-77
2024/01/17 06:30:46;;;;;;;12.10;6.45;;;;;;;-1.44;100.00;99482.28;5239370;28;20044;-77
2024/01/17 06:33:18;;;;;;;10.70;6.20;;;;;;;-1.45;100.00;99480.63;5240716;28;20044;-77
2024/01/17 06:35:49;;;;;;;9.13;6.32;;;;;;;-1.46;100.00;99474.69;5238053;28;20037;-77
2024/01/17 06:38:21;;;;;;;11.02;6.22;;;;;;;-1.44;100.00;99466.88;5236865;28;20041;-77
2024/01/17 06:40:53;;;;;;;9.20;6.05;;;;;;;-1.45;100.00;99458.34;5239990;28;20087;-77
2024/01/17 06:43:25;;;;;;;11.20;6.38;;;;;;;-1.43;100.00;99458.28;5249581;28;20095;-77
2024/01/17 06:45:58;;;;;;;9.63;6.32;;;;;;;-1.39;100.00;99447.72;5245232;28;20035;-77
2024/01/17 06:48:30;;;;;;;11.13;6.20;;;;;;;-1.38;100.00;99453.69;5242102;28;20036;-77
2024/01/17 06:51:03;;;;;;;11.50;7.10;;;;;;;-1.37;100.00;99452.75;5239589;28;20039;-77
2024/01/17 06:53:35;;;;;;;9.48;6.15;;;;;;;-1.40;100.00;99445.22;5240313;28;20284;-78
2024/01/17 06:56:07;;;;;;;9.93;6.65;;;;;;;-1.42;100.00;99442.75;5237541;28;20103;-78
2024/01/17 06:58:39;;;;;;;10.23;6.43;;;;;;;-1.40;100.00;99450.38;5241082;28;20032;-77
2024/01/17 07:01:11;;;;;;;10.68;6.72;;;;;;;-1.42;100.00;99435.06;5239756;28;20029;-77
2024/01/17 07:03:43;;;;;;;11.70;6.82;;;;;;;-1.49;100.00;99420.91;5240376;28;20037;-77
2024/01/17 07:06:14;;;;;;;9.55;6.40;;;;;;;-1.44;100.00;99415.50;5238295;28;20043;-78
2024/01/17 07:08:47;;;;;;;10.25;6.43;;;;;;;-1.43;100.00;99407.72;5235620;28;20386;-78
2024/01/17 07:11:18;;;;;;;10.50;5.88;;;;;;;-1.40;100.00;99420.41;5239879;28;20033;-77
2024/01/17 07:13:50;;;;;;;10.35;6.20;;;;;;;-1.39;100.00;99413.50;5238489;28;20045;-78
2024/01/17 07:16:22;;;;;;;9.85;6.38;;;;;;;-1.38;100.00;99403.13;5241304;28;20033;-77
2024/01/17 07:18:55;;;;;;;9.15;6.80;;;;;;;-1.40;100.00;99412.69;5237133;28;20572;-77
2024/01/17 07:21:27;;;;;;;9.93;6.50;;;;;;;-1.37;100.00;99402.22;5241025;28;20033;-77
2024/01/17 07:23:59;;;;;;;9.73;6.10;;;;;;;-1.41;100.00;99398.16;5238631;28;20083;-77
2024/01/17 07:26:31;;;;;;;8.95;6.15;;;;;;;-1.43;100.00;99386.34;5241167;28;20039;-77
2024/01/17 07:29:03;;;;;;;12.15;6.78;;;;;;;-1.41;100.00;99385.31;5238589;28;20036;-77
2024/01/17 07:31:35;;;;;;;10.77;5.88;;;;;;;-1.38;100.00;99380.03;5238067;28;20051;-77
2024/01/17 07:34:07;;;;;;;8.77;5.75;;;;;;;-1.38;100.00;99369.75;5238558;28;20037;-77
2024/01/17 07:36:38;;;;;;;9.40;6.28;;;;;;;-1.37;100.00;99362.84;5236530;28;20045;-77
2024/01/17 07:39:10;;;;;;;14.02;6.43;;;;;;;-1.38;100.00;99359.47;5237829;28;20037;-76
2024/01/17 07:41:42;;;;;;;9.88;6.18;;;;;;;-1.37;100.00;99343.13;5234985;28;20037;-76
2024/01/17 07:44:14;;;;;;;10.38;6.47;;;;;;;-1.33;100.00;99342.03;5237644;28;20041;-76
2024/01/17 07:46:47;;;;;;;8.65;5.75;;;;;;;-1.30;100.00;99336.72;5237071;28;20037;-76
2024/01/17 07:49:19;;;;;;;10.40;5.60;;;;;;;-1.24;100.00;99335.53;5236681;28;20048;-76
2024/01/17 07:51:51;;;;;;;9.98;5.88;;;;;;;-1.25;100.00;99329.56;5238116;28;20037;-76
2024/01/17 07:54:23;;;;;;;10.43;5.88;;;;;;;-1.23;100.00;99322.56;5237985;28;20049;-76
2024/01/17 07:56:55;;;;;;;9.68;6.20;;;;;;;-1.20;100.00;99311.31;5236498;28;20471;-76
2024/01/17 07:59:30;;;;;;;9.45;5.65;;;;;;;-1.16;100.00;99311.94;5237586;28;20048;-76
2024/01/17 08:02:03;;;;;;;9.43;5.40;;;;;;;-1.14;100.00;99316.03;5238912;28;20038;-76
2024/01/17 08:04:35;;;;;;;9.17;5.87;;;;;;;-1.13;100.00;99298.91;5238101;28;20032;-77
2024/01/17 08:07:06;;;;;;;8.90;6.03;;;;;;;-1.10;100.00;99303.84;5239090;28;20384;-76
2024/01/17 08:09:38;;;;;;;9.18;5.80;;;;;;;-1.08;100.00;99295.13;5239388;28;20063;-76
2024/01/17 08:12:10;;;;;;;9.95;5.78;;;;;;;-1.04;100.00;99298.31;5238642;28;20067;-76
2024/01/17 08:14:42;;;;;;;9.88;6.45;;;;;;;-1.03;100.00;99293.09;5237935;28;20029;-76
2024/01/17 08:17:14;;;;;;;9.63;6.40;;;;;;;-1.02;100.00;99297.31;5236013;28;20156;-76
2024/01/17 08:19:46;;;;;;;10.07;6.55;;;;;;;-0.98;100.00;99288.50;5239483;28;20056;-76
2024/01/17 08:22:18;;;;;;;9.43;6.50;;;;;;;-0.95;100.00;99284.06;5237551;28;20037;-76
2024/01/17 08:24:50;;;;;;;8.40;6.18;;;;;;;-0.93;100.00;99280.50;5237066;28;20041;-76
2024/01/17 08:27:22;;;;;;;10.15;6.57;;;;;;;-0.88;100.00;99291.31;5238800;28;20026;-76
2024/01/17 08:29:54;;;;;;;8.52;6.15;;;;;;;-0.86;100.00;99279.19;5237109;28;20044;-76
2024/01/17 08:32:26;;;;;;;11.48;6.55;;;;;;;-0.85;100.00;99272.31;5238198;28;20026;-76
2024/01/17 08:34:58;;;;;;;8.68;6.15;;;;;;;-0.83;100.00;99273.03;5238142;28;20969;-76
2024/01/17 08:37:30;;;;;;;10.45;6.20;;;;;;;-0.82;100.00;99264.41;5236768;28;20445;-75
2024/01/17 08:40:03;;;;;;;10.10;6.90;;;;;;;-0.77;100.00;99260.59;5237393;28;20060;-76
2024/01/17 08:42:35;;;;;;;8.48;5.47;;;;;;;-0.70;100.00;99253.34;5239625;28;20040;-76
2024/01/17 08:45:07;;;;;;;10.02;6.47;;;;;;;-0.74;100.00;99251.88;5238679;28;20057;-76
2024/01/17 08:47:42;;;;;;;11.53;5.80;;;;;;;-0.67;100.00;99254.91;5238581;28;20030;-76
2024/01/17 08:50:14;;;;;;;10.00;6.38;;;;;;;-0.67;100.00;99237.72;5231483;28;20036;-76
2024/01/17 08:52:46;;;;;;;8.73;5.63;;;;;;;-0.61;100.00;99233.91;5239091;28;20029;-75
2024/01/17 08:55:17;;;;;;;8.73;5.93;;;;;;;-0.64;100.00;99222.09;5239695;28;20038;-75
2024/01/17 08:57:50;;;;;;;10.48;6.05;;;;;;;-0.56;100.00;99224.16;5239959;28;20662;-76
2024/01/17 09:00:21;;;;;;;8.40;6.22;;;;;;;-0.52;100.00;99220.47;5238675;28;20029;-76
2024/01/17 09:02:53;;;;;;;9.85;6.60;;;;;;;-0.50;100.00;99218.59;5239264;28;20540;-76
2024/01/17 09:05:25;;;;;;;9.40;7.05;;;;;;;-0.38;100.00;99206.69;5241909;28;20132;-76
2024/01/17 09:07:58;;;;;;;10.27;6.53;;;;;;;-0.45;100.00;99193.44;5242007;28;20033;-76
2024/01/17 09:10:30;;;;;;;9.27;5.97;;;;;;;-0.42;100.00;99202.66;5239862;28;20033;-76
2024/01/17 09:13:02;;;;;;;10.27;6.30;;;;;;;-0.46;100.00;99209.75;5241571;28;20044;-76
2024/01/17 09:15:34;;;;;;;9.35;5.90;;;;;;;-0.44;100.00;99191.66;5236036;28;20045;-76
2024/01/17 09:18:07;;;;;;;8.90;6.35;;;;;;;-0.36;100.00;99200.53;5240721;28;20474;-76
2024/01/17 09:20:39;;;;;;;9.98;6.03;;;;;;;-0.28;100.00;99200.84;5240398;28;20035;-76
2024/01/17 09:23:11;;;;;;;12.10;6.93;;;;;;;-0.28;100.00;99197.44;5241389;28;20032;-76
2024/01/17 09:25:43;;;;;;;10.13;7.03;;;;;;;-0.33;100.00;99178.91;5239372;28;20068;-76
2024/01/17 09:28:15;;;;;;;10.00;6.72;;;;;;;-0.29;100.00;99183.75;5238093;28;20036;-76
2024/01/17 09:30:47;;;;;;;10.68;7.43;;;;;;;-0.25;100.00;99187.78;5239719;28;20517;-76
2024/01/17 09:33:19;;;;;;;12.82;7.35;;;;;;;-0.26;100.00;99180.16;5239383;28;20048;-76
2024/01/17 09:35:50;;;;;;;11.32;6.97;;;;;;;-0.18;100.00;99183.03;5240224;28;20041;-76
2024/01/17 09:38:22;;;;;;;10.07;6.65;;;;;;;-0.15;100.00;99177.69;5237694;28;20039;-76
2024/01/17 09:40:55;;;;;;;10.63;6.85;;;;;;;-0.06;100.00;99186.53;5242498;28;20486;-76
2024/01/17 09:43:27;;;;;;;8.07;6.50;;;;;;;-0.11;100.00;99176.56;5242814;28;20025;-76
2024/01/17 09:46:00;;;;;;;10.50;7.40;;;;;;;-0.08;100.00;99180.66;5241283;28;20414;-76
2024/01/17 09:48:32;;;;;;;10.00;6.95;;;;;;;-0.07;100.00;99178.00;5240137;28;20022;-76
2024/01/17 09:51:04;;;;;;;10.65;6.55;;;;;;;-0.07;100.00;99170.28;5235053;28;20438;-76
2024/01/17 09:53:38;;;;;;;10.30;7.50;;;;;;;-0.03;100.00;99173.47;5242525;28;20033;-76
2024/01/17 09:56:11;;;;;;;11.32;6.70;;;;;;;0.01;100.00;99156.06;5238987;28;20380;-76
2024/01/17 09:58:45;;;;;;;13.30;7.00;;;;;;;-0.05;100.00;99155.53;5238600;28;20033;-76
2024/01/17 10:01:19;;;;;;;10.18;6.88;;;;;;;0.05;100.00;99158.31;5241993;28;20659;-76
2024/01/17 10:03:55;;;;;;;10.50;6.65;;;;;;;0.12;100.00;99158.72;5234152;28;20045;-76
2024/01/17 10:06:27;;;;;;;8.73;7.03;;;;;;;0.06;100.00;99143.69;5238022;28;20029;-76
2024/01/17 10:09:00;;;;;;;11.25;7.00;;;;;;;0.12;100.00;99149.25;5241248;28;20075;-76
2024/01/17 10:11:32;;;;;;;9.38;6.60;;;;;;;0.16;100.00;99155.00;5243304;28;20033;-76
2024/01/17 10:14:04;;;;;;;12.35;6.97;;;;;;;0.19;100.00;99150.47;5241087;28;20039;-76
2024/01/17 10:16:36;;;;;;;11.13;7.47;;;;;;;0.18;100.00;99148.00;5240506;28;20036;-76
2024/01/17 10:19:08;;;;;;;10.68;7.18;;;;;;;0.22;100.00;99150.25;5239591;28;20394;-76
2024/01/17 10:21:39;;;;;;;10.15;6.95;;;;;;;0.28;100.00;99145.63;5240974;28;20033;-76
2024/01/17 10:24:11;;;;;;;10.50;6.47;;;;;;;0.25;100.00;99144.06;5239156;28;20037;-76
2024/01/17 10:26:44;;;;;;;10.38;7.30;;;;;;;0.27;100.00;99141.41;5239938;28;20118;-76
2024/01/17 10:29:16;;;;;;;10.40;7.28;;;;;;;0.28;100.00;99141.28;5239942;28;20033;-76
2024/01/17 10:31:48;;;;;;;11.10;6.22;;;;;;;0.29;100.00;99135.19;5239941;28;20109;-76
2024/01/17 10:34:20;;;;;;;11.27;7.35;;;;;;;0.35;100.00;99133.97;5238079;28;20746;-76
2024/01/17 10:36:52;;;;;;;11.48;6.97;;;;;;;0.38;100.00;99126.00;5238353;28;20048;-77
2024/01/17 10:39:27;;;;;;;10.02;6.68;;;;;;;0.37;100.00;99124.34;5233742;28;20045;-77
2024/01/17 10:41:59;;;;;;;10.27;7.60;;;;;;;0.42;100.00;99114.56;5241913;28;20049;-77
2024/01/17 10:44:31;;;;;;;10.57;7.90;;;;;;;0.43;100.00;99105.91;5240160;28;20042;-77
2024/01/17 10:47:03;;;;;;;10.98;8.25;;;;;;;0.52;100.00;99112.16;5242356;28;20079;-77
2024/01/17 10:49:35;;;;;;;13.23;8.27;;;;;;;0.54;100.00;99107.72;5239655;28;20025;-77
2024/01/17 10:52:13;;;;;;;11.55;8.70;;;;;;;0.48;100.00;99094.31;5240861;28;20504;-77
2024/01/17 10:54:56;;;;;;;11.23;8.80;;;;;;;0.65;100.00;99102.63;5239474;28;20045;-77
2024/01/17 10:57:29;;;;;;;11.60;8.60;;;;;;;0.53;100.00;99095.75;5237569;28;20055;-77
2024/01/17 11:00:04;;;;;;;11.45;8.68;;;;;;;0.54;100.00;99093.06;5238055;28;20036;-77
2024/01/17 11:02:36;;;;;;;13.13;9.70;;;;;;;0.59;100.00;99083.25;5239399;28;20043;-77
2024/01/17 11:05:11;;;;;;;9.80;8.45;;;;;;;0.63;100.00;99083.84;5240562;28;20029;-77
2024/01/17 11:07:43;;;;;;;13.70;9.32;;;;;;;0.59;100.00;99074.72;5242734;28;20033;-77
2024/01/17 11:10:17;;;;;;;13.55;9.50;;;;;;;0.62;100.00;99082.22;5239962;28;20036;-77
2024/01/17 11:12:50;;;;;;;12.02;8.43;;;;;;;0.62;100.00;99080.47;5239062;28;20029;-77
2024/01/17 11:15:24;;;;;;;14.13;8.60;;;;;;;0.66;100.00;99074.16;5238826;28;20048;-77
2024/01/17 11:17:59;;;;;;;11.00;8.77;;;;;;;0.66;98.77;99071.56;5239533;28;20021;-77
2024/01/17 11:20:31;;;;;;;13.63;9.23;;;;;;;0.66;100.00;99063.03;5236861;28;20055;-77
2024/01/17 11:23:04;;;;;;;13.10;9.77;;;;;;;0.62;99.72;99069.34;5240418;28;20044;-77
2024/01/17 11:25:44;;;;;;;12.60;9.15;;;;;;;0.66;98.56;99055.28;5239270;28;20040;-77
2024/01/17 11:28:27;;;;;;;11.68;8.77;;;;;;;0.69;100.00;99048.16;5237315;28;20032;-77
2024/01/17 11:31:27;;;;;;;15.80;9.83;;;;;;;0.90;100.00;99045.75;5239760;28;20029;-77
2024/01/17 11:33:59;;;;;;;13.85;8.93;;;;;;;0.69;99.08;99040.44;5241050;28;20510;-77
2024/01/17 11:36:45;;;;;;;14.15;9.20;;;;;;;0.83;100.00;99039.41;5240423;28;20371;-78
2024/01/17 11:39:18;;;;;;;16.10;9.45;;;;;;;0.66;97.48;99042.41;5239936;28;20025;-77
2024/01/17 11:41:50;;;;;;;15.27;9.23;;;;;;;0.71;98.76;99040.31;5239242;28;20025;-77
2024/01/17 11:44:23;;;;;;;12.10;8.57;;;;;;;0.75;100.00;99033.19;5239307;28;20545;-77
2024/01/17 11:46:54;;;;;;;14.07;9.50;;;;;;;0.80;99.22;99028.53;5239117;28;20056;-77